sensor_id;sensor_type;location;lat;lon;timestamp;P1;durP1;ratioP1;P2;durP2;ratioP2
11034;SDS011;5571;48.110;-1.706;2023-05-06T00:01:30;31.90;;;5.50;;
11034;SDS011;5571;48.110;-1.706;2023-05-06T00:03:57;26.67;;;5.40;;
11034;SDS011;5571;48.110;-1.706;2023-05-06T00:06:23;26.60;;;5.47;;
11034;SDS011;5571;48.110;-1.706;2023-05-06T00:08:48;24.03;;;5.50;;
11034;SDS011;5571;48.110;-1.706;2023-05-06T00:11:14;28.37;;;5.23;;
11034;SDS011;5571;48.110;-1.706;2023-05-06T00:13:40;32.67;;;5.43;;
11034;SDS011;5571;48.110;-1.706;2023-05-06T00:16:05;26.23;;;5.70;;
11034;SDS011;5571;48.110;-1.706;2023-05-06T00:18:31;28.17;;;5.20;;
11034;SDS011;5571;48.110;-1.706;2023-05-06T00:20:57;22.57;;;5.30;;
11034;SDS011;5571;48.110;-1.706;2023-05-06T00:23:23;25.20;;;5.50;;
11034;SDS011;5571;48.110;-1.706;2023-05-06T00:25:48;24.00;;;5.47;;
11034;SDS011;5571;48.110;-1.706;2023-05-06T00:28:14;24.37;;;4.97;;
11034;SDS011;5571;48.110;-1.706;2023-05-06T00:30:39;23.70;;;4.87;;
11034;SDS011;5571;48.110;-1.706;2023-05-06T00:33:05;18.80;;;5.03;;
11034;SDS011;5571;48.110;-1.706;2023-05-06T00:35:31;21.07;;;5.00;;
11034;SDS011;5571;48.110;-1.706;2023-05-06T00:37:56;21.03;;;5.17;;
11034;SDS011;5571;48.110;-1.706;2023-05-06T00:40:32;28.53;;;5.83;;
11034;SDS011;5571;48.110;-1.706;2023-05-06T00:42:58;22.83;;;4.97;;
11034;SDS011;5571;48.110;-1.706;2023-05-06T00:45:23;29.43;;;5.10;;
11034;SDS011;5571;48.110;-1.706;2023-05-06T00:47:49;22.23;;;4.90;;
11034;SDS011;5571;48.110;-1.706;2023-05-06T00:50:16;20.33;;;4.93;;
11034;SDS011;5571;48.110;-1.706;2023-05-06T00:52:42;23.67;;;6.00;;
11034;SDS011;5571;48.110;-1.706;2023-05-06T00:55:08;22.03;;;5.27;;
11034;SDS011;5571;48.110;-1.706;2023-05-06T00:57:33;21.27;;;5.17;;
11034;SDS011;5571;48.110;-1.706;2023-05-06T00:59:59;23.00;;;4.80;;
11034;SDS011;5571;48.110;-1.706;2023-05-06T01:02:25;20.67;;;5.20;;
11034;SDS011;5571;48.110;-1.706;2023-05-06T01:04:51;20.00;;;5.13;;
11034;SDS011;5571;48.110;-1.706;2023-05-06T01:07:22;19.47;;;4.90;;
11034;SDS011;5571;48.110;-1.706;2023-05-06T01:12:45;23.80;;;5.03;;
11034;SDS011;5571;48.110;-1.706;2023-05-06T01:15:19;18.57;;;4.90;;
11034;SDS011;5571;48.110;-1.706;2023-05-06T01:17:52;18.27;;;4.53;;
11034;SDS011;5571;48.110;-1.706;2023-05-06T01:20:18;26.27;;;4.83;;
11034;SDS011;5571;48.110;-1.706;2023-05-06T01:22:46;18.57;;;4.37;;
11034;SDS011;5571;48.110;-1.706;2023-05-06T01:25:17;21.10;;;4.40;;
11034;SDS011;5571;48.110;-1.706;2023-05-06T01:27:46;19.60;;;4.57;;
11034;SDS011;5571;48.110;-1.706;2023-05-06T01:30:12;22.97;;;4.30;;
11034;SDS011;5571;48.110;-1.706;2023-05-06T01:32:52;19.10;;;3.83;;
11034;SDS011;5571;48.110;-1.706;2023-05-06T01:38:28;19.73;;;4.33;;
11034;SDS011;5571;48.110;-1.706;2023-05-06T01:41:01;16.77;;;4.43;;
11034;SDS011;5571;48.110;-1.706;2023-05-06T01:43:29;16.50;;;4.03;;
11034;SDS011;5571;48.110;-1.706;2023-05-06T01:46:01;20.30;;;4.30;;
11034;SDS011;5571;48.110;-1.706;2023-05-06T01:48:27;13.30;;;3.67;;
11034;SDS011;5571;48.110;-1.706;2023-05-06T01:50:55;15.73;;;4.20;;
11034;SDS011;5571;48.110;-1.706;2023-05-06T01:53:22;20.60;;;4.27;;
11034;SDS011;5571;48.110;-1.706;2023-05-06T01:55:47;16.97;;;3.67;;
11034;SDS011;5571;48.110;-1.706;2023-05-06T01:58:13;14.70;;;3.93;;
11034;SDS011;5571;48.110;-1.706;2023-05-06T02:00:39;17.43;;;4.27;;
11034;SDS011;5571;48.110;-1.706;2023-05-06T02:03:05;20.37;;;4.70;;
11034;SDS011;5571;48.110;-1.706;2023-05-06T02:05:31;15.50;;;4.50;;
11034;SDS011;5571;48.110;-1.706;2023-05-06T02:07:56;21.13;;;4.27;;
11034;SDS011;5571;48.110;-1.706;2023-05-06T02:10:22;22.07;;;4.70;;
11034;SDS011;5571;48.110;-1.706;2023-05-06T02:12:48;13.40;;;3.57;;
11034;SDS011;5571;48.110;-1.706;2023-05-06T02:15:13;21.53;;;3.83;;
11034;SDS011;5571;48.110;-1.706;2023-05-06T02:17:39;11.33;;;4.03;;
11034;SDS011;5571;48.110;-1.706;2023-05-06T02:20:05;15.57;;;4.43;;
11034;SDS011;5571;48.110;-1.706;2023-05-06T02:22:33;15.50;;;3.73;;
11034;SDS011;5571;48.110;-1.706;2023-05-06T02:24:59;14.77;;;4.03;;
11034;SDS011;5571;48.110;-1.706;2023-05-06T02:27:25;20.47;;;4.30;;
11034;SDS011;5571;48.110;-1.706;2023-05-06T02:29:51;11.50;;;3.50;;
11034;SDS011;5571;48.110;-1.706;2023-05-06T02:32:16;17.90;;;4.20;;
11034;SDS011;5571;48.110;-1.706;2023-05-06T02:34:42;20.33;;;4.57;;
11034;SDS011;5571;48.110;-1.706;2023-05-06T02:37:07;14.77;;;4.20;;
11034;SDS011;5571;48.110;-1.706;2023-05-06T02:39:33;14.53;;;4.30;;
11034;SDS011;5571;48.110;-1.706;2023-05-06T02:41:59;12.13;;;3.97;;
11034;SDS011;5571;48.110;-1.706;2023-05-06T02:44:25;18.43;;;4.23;;
11034;SDS011;5571;48.110;-1.706;2023-05-06T02:46:50;18.70;;;4.23;;
11034;SDS011;5571;48.110;-1.706;2023-05-06T02:49:16;14.70;;;4.00;;
11034;SDS011;5571;48.110;-1.706;2023-05-06T02:51:42;17.87;;;4.37;;
11034;SDS011;5571;48.110;-1.706;2023-05-06T02:54:07;14.50;;;4.10;;
11034;SDS011;5571;48.110;-1.706;2023-05-06T02:56:33;15.23;;;4.40;;
11034;SDS011;5571;48.110;-1.706;2023-05-06T02:58:59;18.57;;;4.10;;
11034;SDS011;5571;48.110;-1.706;2023-05-06T03:01:25;18.83;;;4.20;;
11034;SDS011;5571;48.110;-1.706;2023-05-06T03:03:51;16.57;;;3.97;;
11034;SDS011;5571;48.110;-1.706;2023-05-06T03:06:16;17.70;;;4.27;;
11034;SDS011;5571;48.110;-1.706;2023-05-06T03:08:42;15.97;;;4.33;;
11034;SDS011;5571;48.110;-1.706;2023-05-06T03:11:08;11.77;;;3.43;;
11034;SDS011;5571;48.110;-1.706;2023-05-06T03:13:33;13.80;;;3.43;;
11034;SDS011;5571;48.110;-1.706;2023-05-06T03:15:59;15.40;;;3.67;;
11034;SDS011;5571;48.110;-1.706;2023-05-06T03:18:26;16.30;;;3.90;;
11034;SDS011;5571;48.110;-1.706;2023-05-06T03:20:52;14.30;;;3.50;;
11034;SDS011;5571;48.110;-1.706;2023-05-06T03:23:17;15.57;;;3.60;;
11034;SDS011;5571;48.110;-1.706;2023-05-06T03:25:43;11.17;;;3.47;;
11034;SDS011;5571;48.110;-1.706;2023-05-06T03:28:09;15.87;;;4.10;;
11034;SDS011;5571;48.110;-1.706;2023-05-06T03:30:35;12.73;;;3.53;;
11034;SDS011;5571;48.110;-1.706;2023-05-06T03:33:01;12.80;;;3.27;;
11034;SDS011;5571;48.110;-1.706;2023-05-06T03:35:27;11.03;;;3.27;;
11034;SDS011;5571;48.110;-1.706;2023-05-06T03:37:52;13.67;;;3.30;;
11034;SDS011;5571;48.110;-1.706;2023-05-06T03:40:18;9.73;;;3.10;;
11034;SDS011;5571;48.110;-1.706;2023-05-06T03:42:44;17.37;;;3.60;;
11034;SDS011;5571;48.110;-1.706;2023-05-06T03:45:10;12.50;;;3.63;;
11034;SDS011;5571;48.110;-1.706;2023-05-06T03:47:36;15.43;;;3.67;;
11034;SDS011;5571;48.110;-1.706;2023-05-06T03:50:02;12.87;;;3.77;;
11034;SDS011;5571;48.110;-1.706;2023-05-06T03:52:28;16.20;;;3.90;;
11034;SDS011;5571;48.110;-1.706;2023-05-06T03:54:54;15.80;;;4.13;;
11034;SDS011;5571;48.110;-1.706;2023-05-06T03:57:19;11.80;;;3.57;;
11034;SDS011;5571;48.110;-1.706;2023-05-06T03:59:45;19.80;;;3.73;;
11034;SDS011;5571;48.110;-1.706;2023-05-06T04:02:10;15.03;;;3.63;;
11034;SDS011;5571;48.110;-1.706;2023-05-06T04:04:36;18.77;;;3.77;;
11034;SDS011;5571;48.110;-1.706;2023-05-06T04:07:02;17.27;;;3.73;;
11034;SDS011;5571;48.110;-1.706;2023-05-06T04:09:27;15.57;;;3.37;;
11034;SDS011;5571;48.110;-1.706;2023-05-06T04:11:53;12.43;;;3.53;;
11034;SDS011;5571;48.110;-1.706;2023-05-06T04:14:19;11.33;;;3.50;;
11034;SDS011;5571;48.110;-1.706;2023-05-06T04:16:45;11.40;;;3.57;;
11034;SDS011;5571;48.110;-1.706;2023-05-06T04:19:11;16.03;;;3.77;;
11034;SDS011;5571;48.110;-1.706;2023-05-06T04:21:36;15.53;;;3.70;;
11034;SDS011;5571;48.110;-1.706;2023-05-06T04:24:02;14.97;;;3.23;;
11034;SDS011;5571;48.110;-1.706;2023-05-06T04:26:28;13.83;;;3.30;;
11034;SDS011;5571;48.110;-1.706;2023-05-06T04:28:53;9.93;;;3.07;;
11034;SDS011;5571;48.110;-1.706;2023-05-06T04:31:19;16.70;;;3.67;;
11034;SDS011;5571;48.110;-1.706;2023-05-06T04:33:45;18.23;;;3.90;;
11034;SDS011;5571;48.110;-1.706;2023-05-06T04:36:11;11.10;;;3.50;;
11034;SDS011;5571;48.110;-1.706;2023-05-06T04:38:37;16.47;;;3.73;;
11034;SDS011;5571;48.110;-1.706;2023-05-06T04:41:03;14.63;;;3.70;;
11034;SDS011;5571;48.110;-1.706;2023-05-06T04:43:29;13.13;;;3.67;;
11034;SDS011;5571;48.110;-1.706;2023-05-06T04:45:55;12.23;;;3.20;;
11034;SDS011;5571;48.110;-1.706;2023-05-06T04:48:21;15.57;;;3.70;;
11034;SDS011;5571;48.110;-1.706;2023-05-06T04:50:47;15.87;;;3.67;;
11034;SDS011;5571;48.110;-1.706;2023-05-06T04:53:13;13.87;;;3.70;;
11034;SDS011;5571;48.110;-1.706;2023-05-06T04:55:39;17.13;;;3.77;;
11034;SDS011;5571;48.110;-1.706;2023-05-06T04:58:05;11.23;;;3.27;;
11034;SDS011;5571;48.110;-1.706;2023-05-06T05:00:31;11.90;;;3.50;;
11034;SDS011;5571;48.110;-1.706;2023-05-06T05:02:57;11.33;;;3.30;;
11034;SDS011;5571;48.110;-1.706;2023-05-06T05:05:23;14.30;;;3.43;;
11034;SDS011;5571;48.110;-1.706;2023-05-06T05:07:49;12.27;;;3.50;;
11034;SDS011;5571;48.110;-1.706;2023-05-06T05:10:14;14.37;;;3.67;;
11034;SDS011;5571;48.110;-1.706;2023-05-06T05:12:40;11.07;;;3.30;;
11034;SDS011;5571;48.110;-1.706;2023-05-06T05:15:06;15.87;;;3.67;;
11034;SDS011;5571;48.110;-1.706;2023-05-06T05:17:32;17.67;;;3.57;;
11034;SDS011;5571;48.110;-1.706;2023-05-06T05:19:57;13.83;;;3.80;;
11034;SDS011;5571;48.110;-1.706;2023-05-06T05:22:23;13.87;;;3.90;;
11034;SDS011;5571;48.110;-1.706;2023-05-06T05:24:49;13.67;;;3.47;;
11034;SDS011;5571;48.110;-1.706;2023-05-06T05:27:14;10.70;;;3.10;;
11034;SDS011;5571;48.110;-1.706;2023-05-06T05:29:40;12.53;;;3.30;;
11034;SDS011;5571;48.110;-1.706;2023-05-06T05:32:05;11.43;;;3.23;;
11034;SDS011;5571;48.110;-1.706;2023-05-06T05:34:31;13.10;;;3.60;;
11034;SDS011;5571;48.110;-1.706;2023-05-06T05:36:56;9.80;;;3.40;;
11034;SDS011;5571;48.110;-1.706;2023-05-06T05:39:22;15.67;;;3.57;;
11034;SDS011;5571;48.110;-1.706;2023-05-06T05:41:48;8.43;;;3.00;;
11034;SDS011;5571;48.110;-1.706;2023-05-06T05:44:14;10.40;;;3.40;;
11034;SDS011;5571;48.110;-1.706;2023-05-06T05:46:40;15.53;;;3.97;;
11034;SDS011;5571;48.110;-1.706;2023-05-06T05:49:06;17.93;;;3.37;;
11034;SDS011;5571;48.110;-1.706;2023-05-06T05:51:33;12.53;;;3.30;;
11034;SDS011;5571;48.110;-1.706;2023-05-06T05:53:58;15.07;;;3.50;;
11034;SDS011;5571;48.110;-1.706;2023-05-06T05:56:24;14.30;;;3.50;;
11034;SDS011;5571;48.110;-1.706;2023-05-06T05:58:50;14.73;;;3.50;;
11034;SDS011;5571;48.110;-1.706;2023-05-06T06:01:15;15.27;;;3.37;;
11034;SDS011;5571;48.110;-1.706;2023-05-06T06:03:41;16.50;;;3.47;;
11034;SDS011;5571;48.110;-1.706;2023-05-06T06:06:07;16.47;;;3.47;;
11034;SDS011;5571;48.110;-1.706;2023-05-06T06:08:33;14.10;;;3.27;;
11034;SDS011;5571;48.110;-1.706;2023-05-06T06:10:59;16.13;;;3.40;;
11034;SDS011;5571;48.110;-1.706;2023-05-06T06:13:28;10.53;;;3.20;;
11034;SDS011;5571;48.110;-1.706;2023-05-06T06:15:54;13.27;;;3.10;;
11034;SDS011;5571;48.110;-1.706;2023-05-06T06:18:20;10.67;;;3.37;;
11034;SDS011;5571;48.110;-1.706;2023-05-06T06:20:46;15.10;;;4.10;;
11034;SDS011;5571;48.110;-1.706;2023-05-06T06:23:11;12.57;;;3.57;;
11034;SDS011;5571;48.110;-1.706;2023-05-06T06:25:37;13.87;;;3.30;;
11034;SDS011;5571;48.110;-1.706;2023-05-06T06:28:02;11.97;;;3.60;;
11034;SDS011;5571;48.110;-1.706;2023-05-06T06:30:28;12.70;;;3.17;;
11034;SDS011;5571;48.110;-1.706;2023-05-06T06:32:54;11.63;;;3.50;;
11034;SDS011;5571;48.110;-1.706;2023-05-06T06:35:20;14.50;;;3.57;;
11034;SDS011;5571;48.110;-1.706;2023-05-06T06:37:47;16.90;;;3.40;;
11034;SDS011;5571;48.110;-1.706;2023-05-06T06:40:13;13.43;;;3.50;;
11034;SDS011;5571;48.110;-1.706;2023-05-06T06:42:39;9.57;;;3.20;;
11034;SDS011;5571;48.110;-1.706;2023-05-06T06:45:06;17.13;;;3.73;;
11034;SDS011;5571;48.110;-1.706;2023-05-06T06:47:32;16.47;;;3.57;;
11034;SDS011;5571;48.110;-1.706;2023-05-06T06:49:58;19.13;;;3.50;;
11034;SDS011;5571;48.110;-1.706;2023-05-06T06:52:23;10.10;;;3.13;;
11034;SDS011;5571;48.110;-1.706;2023-05-06T06:54:49;11.33;;;3.10;;
11034;SDS011;5571;48.110;-1.706;2023-05-06T06:57:14;13.77;;;3.30;;
11034;SDS011;5571;48.110;-1.706;2023-05-06T06:59:40;13.67;;;3.17;;
11034;SDS011;5571;48.110;-1.706;2023-05-06T07:02:06;16.00;;;3.50;;
11034;SDS011;5571;48.110;-1.706;2023-05-06T07:04:31;15.10;;;3.53;;
11034;SDS011;5571;48.110;-1.706;2023-05-06T07:06:57;10.73;;;3.10;;
11034;SDS011;5571;48.110;-1.706;2023-05-06T07:09:22;13.07;;;3.37;;
11034;SDS011;5571;48.110;-1.706;2023-05-06T07:11:48;11.83;;;3.47;;
11034;SDS011;5571;48.110;-1.706;2023-05-06T07:14:14;14.10;;;3.37;;
11034;SDS011;5571;48.110;-1.706;2023-05-06T07:16:39;12.23;;;3.00;;
11034;SDS011;5571;48.110;-1.706;2023-05-06T07:19:05;11.63;;;3.00;;
11034;SDS011;5571;48.110;-1.706;2023-05-06T07:21:30;12.20;;;3.03;;
11034;SDS011;5571;48.110;-1.706;2023-05-06T07:23:57;13.40;;;3.20;;
11034;SDS011;5571;48.110;-1.706;2023-05-06T07:26:23;12.43;;;2.83;;
11034;SDS011;5571;48.110;-1.706;2023-05-06T07:28:48;15.97;;;3.50;;
11034;SDS011;5571;48.110;-1.706;2023-05-06T07:31:14;10.90;;;2.73;;
11034;SDS011;5571;48.110;-1.706;2023-05-06T07:33:44;11.27;;;3.03;;
11034;SDS011;5571;48.110;-1.706;2023-05-06T07:36:13;8.17;;;2.97;;
11034;SDS011;5571;48.110;-1.706;2023-05-06T07:38:38;11.93;;;3.00;;
11034;SDS011;5571;48.110;-1.706;2023-05-06T07:41:05;11.87;;;3.30;;
11034;SDS011;5571;48.110;-1.706;2023-05-06T07:43:30;11.33;;;2.93;;
11034;SDS011;5571;48.110;-1.706;2023-05-06T07:45:56;12.20;;;3.00;;
11034;SDS011;5571;48.110;-1.706;2023-05-06T07:48:29;11.83;;;3.47;;
11034;SDS011;5571;48.110;-1.706;2023-05-06T07:50:57;11.43;;;3.20;;
11034;SDS011;5571;48.110;-1.706;2023-05-06T07:53:23;9.57;;;2.80;;
11034;SDS011;5571;48.110;-1.706;2023-05-06T07:55:49;12.13;;;3.30;;
11034;SDS011;5571;48.110;-1.706;2023-05-06T07:58:16;11.43;;;3.40;;
11034;SDS011;5571;48.110;-1.706;2023-05-06T08:00:42;9.50;;;3.17;;
11034;SDS011;5571;48.110;-1.706;2023-05-06T08:03:08;10.50;;;3.47;;
11034;SDS011;5571;48.110;-1.706;2023-05-06T08:05:33;9.40;;;2.80;;
11034;SDS011;5571;48.110;-1.706;2023-05-06T08:07:59;9.90;;;3.00;;
11034;SDS011;5571;48.110;-1.706;2023-05-06T08:10:25;11.87;;;3.00;;
11034;SDS011;5571;48.110;-1.706;2023-05-06T08:12:50;11.97;;;3.47;;
11034;SDS011;5571;48.110;-1.706;2023-05-06T08:15:16;11.77;;;3.10;;
11034;SDS011;5571;48.110;-1.706;2023-05-06T08:17:41;10.40;;;2.87;;
11034;SDS011;5571;48.110;-1.706;2023-05-06T08:20:07;10.07;;;2.83;;
11034;SDS011;5571;48.110;-1.706;2023-05-06T08:22:33;9.10;;;2.73;;
11034;SDS011;5571;48.110;-1.706;2023-05-06T08:24:59;8.03;;;2.80;;
11034;SDS011;5571;48.110;-1.706;2023-05-06T08:27:25;10.03;;;3.00;;
11034;SDS011;5571;48.110;-1.706;2023-05-06T08:29:50;8.67;;;2.87;;
11034;SDS011;5571;48.110;-1.706;2023-05-06T08:32:16;9.90;;;3.07;;
11034;SDS011;5571;48.110;-1.706;2023-05-06T08:34:42;9.30;;;2.87;;
11034;SDS011;5571;48.110;-1.706;2023-05-06T08:37:07;15.33;;;2.90;;
11034;SDS011;5571;48.110;-1.706;2023-05-06T08:39:33;10.17;;;2.80;;
11034;SDS011;5571;48.110;-1.706;2023-05-06T08:41:59;13.40;;;3.30;;
11034;SDS011;5571;48.110;-1.706;2023-05-06T08:44:27;11.63;;;3.13;;
11034;SDS011;5571;48.110;-1.706;2023-05-06T08:46:53;13.13;;;3.43;;
11034;SDS011;5571;48.110;-1.706;2023-05-06T08:49:19;11.30;;;2.87;;
11034;SDS011;5571;48.110;-1.706;2023-05-06T08:51:45;10.07;;;3.13;;
11034;SDS011;5571;48.110;-1.706;2023-05-06T08:54:15;12.63;;;3.10;;
11034;SDS011;5571;48.110;-1.706;2023-05-06T08:56:44;11.77;;;3.03;;
11034;SDS011;5571;48.110;-1.706;2023-05-06T08:59:12;16.10;;;3.23;;
11034;SDS011;5571;48.110;-1.706;2023-05-06T09:01:38;8.30;;;2.60;;
11034;SDS011;5571;48.110;-1.706;2023-05-06T09:04:04;7.97;;;2.87;;
11034;SDS011;5571;48.110;-1.706;2023-05-06T09:06:31;7.30;;;2.80;;
11034;SDS011;5571;48.110;-1.706;2023-05-06T09:08:58;12.47;;;3.10;;
11034;SDS011;5571;48.110;-1.706;2023-05-06T09:11:28;9.27;;;2.57;;
11034;SDS011;5571;48.110;-1.706;2023-05-06T09:14:15;11.20;;;2.83;;
11034;SDS011;5571;48.110;-1.706;2023-05-06T09:16:44;9.80;;;2.70;;
11034;SDS011;5571;48.110;-1.706;2023-05-06T09:19:11;8.50;;;2.90;;
11034;SDS011;5571;48.110;-1.706;2023-05-06T09:21:38;9.93;;;2.80;;
11034;SDS011;5571;48.110;-1.706;2023-05-06T09:24:09;9.73;;;3.10;;
11034;SDS011;5571;48.110;-1.706;2023-05-06T09:26:36;8.90;;;3.23;;
11034;SDS011;5571;48.110;-1.706;2023-05-06T09:29:03;6.17;;;2.60;;
11034;SDS011;5571;48.110;-1.706;2023-05-06T09:31:30;9.73;;;2.67;;
11034;SDS011;5571;48.110;-1.706;2023-05-06T09:33:56;7.73;;;3.00;;
11034;SDS011;5571;48.110;-1.706;2023-05-06T09:36:23;9.30;;;3.30;;
11034;SDS011;5571;48.110;-1.706;2023-05-06T09:38:51;9.00;;;2.67;;
11034;SDS011;5571;48.110;-1.706;2023-05-06T09:41:21;11.37;;;3.73;;
11034;SDS011;5571;48.110;-1.706;2023-05-06T09:43:52;7.20;;;2.80;;
11034;SDS011;5571;48.110;-1.706;2023-05-06T09:46:22;9.67;;;3.43;;
11034;SDS011;5571;48.110;-1.706;2023-05-06T09:48:49;11.50;;;3.60;;
11034;SDS011;5571;48.110;-1.706;2023-05-06T09:51:16;9.00;;;3.60;;
11034;SDS011;5571;48.110;-1.706;2023-05-06T09:53:42;15.17;;;4.00;;
11034;SDS011;5571;48.110;-1.706;2023-05-06T09:56:09;9.73;;;4.13;;
11034;SDS011;5571;48.110;-1.706;2023-05-06T09:58:35;8.27;;;3.20;;
11034;SDS011;5571;48.110;-1.706;2023-05-06T10:01:03;10.03;;;4.57;;
11034;SDS011;5571;48.110;-1.706;2023-05-06T10:03:30;16.07;;;7.93;;
11034;SDS011;5571;48.110;-1.706;2023-05-06T10:05:56;13.90;;;4.33;;
11034;SDS011;5571;48.110;-1.706;2023-05-06T10:08:25;12.53;;;4.00;;
11034;SDS011;5571;48.110;-1.706;2023-05-06T10:10:51;6.63;;;3.30;;
11034;SDS011;5571;48.110;-1.706;2023-05-06T10:13:21;10.47;;;3.13;;
11034;SDS011;5571;48.110;-1.706;2023-05-06T10:15:48;10.73;;;3.27;;
11034;SDS011;5571;48.110;-1.706;2023-05-06T10:18:15;7.63;;;3.37;;
11034;SDS011;5571;48.110;-1.706;2023-05-06T10:20:43;9.50;;;3.13;;
11034;SDS011;5571;48.110;-1.706;2023-05-06T10:25:44;5.93;;;2.57;;
11034;SDS011;5571;48.110;-1.706;2023-05-06T10:28:12;4.50;;;2.27;;
11034;SDS011;5571;48.110;-1.706;2023-05-06T10:30:38;7.97;;;2.30;;
11034;SDS011;5571;48.110;-1.706;2023-05-06T10:35:37;9.98;;;2.60;;
11034;SDS011;5571;48.110;-1.706;2023-05-06T10:38:13;9.63;;;3.40;;
11034;SDS011;5571;48.110;-1.706;2023-05-06T10:40:52;9.50;;;2.45;;
11034;SDS011;5571;48.110;-1.706;2023-05-06T10:43:22;7.90;;;2.60;;
11034;SDS011;5571;48.110;-1.706;2023-05-06T10:46:02;6.20;;;2.30;;
11034;SDS011;5571;48.110;-1.706;2023-05-06T10:48:30;9.68;;;2.72;;
11034;SDS011;5571;48.110;-1.706;2023-05-06T10:56:32;10.02;;;3.05;;
11034;SDS011;5571;48.110;-1.706;2023-05-06T10:59:05;9.63;;;2.83;;
11034;SDS011;5571;48.110;-1.706;2023-05-06T11:01:32;8.88;;;2.83;;
11034;SDS011;5571;48.110;-1.706;2023-05-06T11:04:12;11.00;;;3.13;;
11034;SDS011;5571;48.110;-1.706;2023-05-06T11:06:46;8.75;;;2.33;;
11034;SDS011;5571;48.110;-1.706;2023-05-06T11:09:20;9.57;;;3.60;;
11034;SDS011;5571;48.110;-1.706;2023-05-06T11:11:57;6.47;;;2.50;;
11034;SDS011;5571;48.110;-1.706;2023-05-06T11:14:32;11.43;;;3.10;;
11034;SDS011;5571;48.110;-1.706;2023-05-06T11:17:00;7.18;;;2.30;;
11034;SDS011;5571;48.110;-1.706;2023-05-06T11:19:33;11.95;;;2.88;;
11034;SDS011;5571;48.110;-1.706;2023-05-06T11:22:01;7.55;;;2.50;;
11034;SDS011;5571;48.110;-1.706;2023-05-06T11:24:29;8.60;;;2.80;;
11034;SDS011;5571;48.110;-1.706;2023-05-06T11:26:56;9.02;;;2.50;;
11034;SDS011;5571;48.110;-1.706;2023-05-06T11:29:22;11.32;;;2.67;;
11034;SDS011;5571;48.110;-1.706;2023-05-06T11:31:49;6.85;;;2.47;;
11034;SDS011;5571;48.110;-1.706;2023-05-06T11:36:52;9.23;;;2.65;;
11034;SDS011;5571;48.110;-1.706;2023-05-06T11:39:26;6.75;;;2.38;;
11034;SDS011;5571;48.110;-1.706;2023-05-06T11:41:56;7.68;;;2.40;;
11034;SDS011;5571;48.110;-1.706;2023-05-06T11:44:31;9.65;;;2.80;;
11034;SDS011;5571;48.110;-1.706;2023-05-06T11:46:59;8.55;;;2.50;;
11034;SDS011;5571;48.110;-1.706;2023-05-06T11:49:33;9.32;;;2.50;;
11034;SDS011;5571;48.110;-1.706;2023-05-06T11:52:03;9.52;;;2.35;;
11034;SDS011;5571;48.110;-1.706;2023-05-06T11:54:32;5.35;;;2.33;;
11034;SDS011;5571;48.110;-1.706;2023-05-06T11:57:02;7.47;;;2.80;;
11034;SDS011;5571;48.110;-1.706;2023-05-06T11:59:31;8.93;;;2.70;;
11034;SDS011;5571;48.110;-1.706;2023-05-06T12:01:59;8.25;;;2.05;;
11034;SDS011;5571;48.110;-1.706;2023-05-06T12:04:27;7.20;;;2.63;;
11034;SDS011;5571;48.110;-1.706;2023-05-06T12:07:00;8.32;;;2.40;;
11034;SDS011;5571;48.110;-1.706;2023-05-06T12:09:28;7.50;;;2.90;;
11034;SDS011;5571;48.110;-1.706;2023-05-06T12:11:54;7.60;;;2.40;;
11034;SDS011;5571;48.110;-1.706;2023-05-06T12:14:20;9.10;;;2.67;;
11034;SDS011;5571;48.110;-1.706;2023-05-06T12:16:46;6.03;;;2.45;;
11034;SDS011;5571;48.110;-1.706;2023-05-06T12:19:14;8.25;;;2.97;;
11034;SDS011;5571;48.110;-1.706;2023-05-06T12:21:41;6.25;;;2.40;;
11034;SDS011;5571;48.110;-1.706;2023-05-06T12:24:07;6.07;;;2.30;;
11034;SDS011;5571;48.110;-1.706;2023-05-06T12:43:34;6.75;;;2.40;;
11034;SDS011;5571;48.110;-1.706;2023-05-06T12:46:06;6.20;;;2.20;;
11034;SDS011;5571;48.110;-1.706;2023-05-06T12:48:33;6.47;;;2.08;;
11034;SDS011;5571;48.110;-1.706;2023-05-06T12:50:58;8.90;;;2.33;;
11034;SDS011;5571;48.110;-1.706;2023-05-06T12:53:41;6.93;;;2.28;;
11034;SDS011;5571;48.110;-1.706;2023-05-06T12:56:06;10.43;;;2.60;;
11034;SDS011;5571;48.110;-1.706;2023-05-06T12:58:32;6.95;;;2.33;;
11034;SDS011;5571;48.110;-1.706;2023-05-06T13:01:01;7.28;;;2.25;;
11034;SDS011;5571;48.110;-1.706;2023-05-06T13:03:27;8.90;;;2.63;;
11034;SDS011;5571;48.110;-1.706;2023-05-06T13:05:52;7.43;;;2.20;;
11034;SDS011;5571;48.110;-1.706;2023-05-06T13:08:18;6.50;;;2.28;;
11034;SDS011;5571;48.110;-1.706;2023-05-06T13:10:44;7.57;;;2.53;;
11034;SDS011;5571;48.110;-1.706;2023-05-06T13:13:09;5.35;;;2.38;;
11034;SDS011;5571;48.110;-1.706;2023-05-06T13:15:35;9.40;;;2.70;;
11034;SDS011;5571;48.110;-1.706;2023-05-06T13:18:01;8.38;;;2.47;;
11034;SDS011;5571;48.110;-1.706;2023-05-06T13:20:26;5.95;;;2.25;;
11034;SDS011;5571;48.110;-1.706;2023-05-06T13:22:52;8.95;;;2.40;;
11034;SDS011;5571;48.110;-1.706;2023-05-06T13:25:18;7.57;;;2.45;;
11034;SDS011;5571;48.110;-1.706;2023-05-06T13:27:44;8.18;;;2.70;;
11034;SDS011;5571;48.110;-1.706;2023-05-06T13:30:09;7.68;;;2.40;;
11034;SDS011;5571;48.110;-1.706;2023-05-06T13:32:35;5.38;;;2.17;;
11034;SDS011;5571;48.110;-1.706;2023-05-06T13:35:01;8.45;;;2.50;;
11034;SDS011;5571;48.110;-1.706;2023-05-06T13:37:26;5.75;;;2.40;;
11034;SDS011;5571;48.110;-1.706;2023-05-06T13:39:52;10.02;;;2.97;;
11034;SDS011;5571;48.110;-1.706;2023-05-06T13:42:17;9.27;;;3.50;;
11034;SDS011;5571;48.110;-1.706;2023-05-06T13:44:43;8.07;;;2.90;;
11034;SDS011;5571;48.110;-1.706;2023-05-06T13:47:08;9.02;;;3.17;;
11034;SDS011;5571;48.110;-1.706;2023-05-06T13:49:34;8.15;;;2.55;;
11034;SDS011;5571;48.110;-1.706;2023-05-06T13:52:00;6.30;;;3.20;;
11034;SDS011;5571;48.110;-1.706;2023-05-06T13:54:25;6.30;;;2.30;;
11034;SDS011;5571;48.110;-1.706;2023-05-06T13:56:51;6.63;;;3.17;;
11034;SDS011;5571;48.110;-1.706;2023-05-06T13:59:16;8.10;;;2.88;;
11034;SDS011;5571;48.110;-1.706;2023-05-06T14:01:42;8.55;;;3.30;;
11034;SDS011;5571;48.110;-1.706;2023-05-06T14:04:08;7.93;;;2.97;;
11034;SDS011;5571;48.110;-1.706;2023-05-06T14:06:33;8.27;;;2.97;;
11034;SDS011;5571;48.110;-1.706;2023-05-06T14:08:59;8.30;;;3.22;;
11034;SDS011;5571;48.110;-1.706;2023-05-06T14:11:24;10.50;;;2.72;;
11034;SDS011;5571;48.110;-1.706;2023-05-06T14:13:50;7.60;;;2.85;;
11034;SDS011;5571;48.110;-1.706;2023-05-06T14:16:16;9.07;;;2.25;;
11034;SDS011;5571;48.110;-1.706;2023-05-06T14:18:41;10.60;;;2.75;;
11034;SDS011;5571;48.110;-1.706;2023-05-06T14:21:07;10.10;;;2.92;;
11034;SDS011;5571;48.110;-1.706;2023-05-06T14:23:33;6.43;;;2.90;;
11034;SDS011;5571;48.110;-1.706;2023-05-06T14:25:59;10.23;;;3.78;;
11034;SDS011;5571;48.110;-1.706;2023-05-06T14:28:24;13.32;;;4.70;;
11034;SDS011;5571;48.110;-1.706;2023-05-06T14:30:50;7.88;;;3.33;;
11034;SDS011;5571;48.110;-1.706;2023-05-06T14:33:16;6.05;;;2.70;;
11034;SDS011;5571;48.110;-1.706;2023-05-06T14:35:41;8.70;;;3.67;;
11034;SDS011;5571;48.110;-1.706;2023-05-06T14:38:07;13.13;;;6.05;;
11034;SDS011;5571;48.110;-1.706;2023-05-06T14:40:34;14.77;;;6.43;;
11034;SDS011;5571;48.110;-1.706;2023-05-06T14:43:00;12.93;;;4.38;;
11034;SDS011;5571;48.110;-1.706;2023-05-06T14:45:27;12.40;;;4.55;;
11034;SDS011;5571;48.110;-1.706;2023-05-06T14:47:52;10.75;;;4.28;;
11034;SDS011;5571;48.110;-1.706;2023-05-06T14:50:18;10.05;;;3.72;;
11034;SDS011;5571;48.110;-1.706;2023-05-06T14:52:44;6.28;;;3.08;;
11034;SDS011;5571;48.110;-1.706;2023-05-06T14:55:09;9.95;;;3.65;;
11034;SDS011;5571;48.110;-1.706;2023-05-06T14:57:36;7.30;;;3.05;;
11034;SDS011;5571;48.110;-1.706;2023-05-06T15:00:02;13.73;;;3.53;;
11034;SDS011;5571;48.110;-1.706;2023-05-06T15:02:32;7.53;;;3.05;;
11034;SDS011;5571;48.110;-1.706;2023-05-06T15:04:58;5.53;;;2.88;;
11034;SDS011;5571;48.110;-1.706;2023-05-06T15:07:23;8.23;;;3.35;;
11034;SDS011;5571;48.110;-1.706;2023-05-06T15:09:49;9.40;;;3.63;;
11034;SDS011;5571;48.110;-1.706;2023-05-06T15:12:14;8.73;;;3.33;;